createdAt,value
2019-02-22T00:01:12.551Z,43.77
2019-02-22T00:03:41.160Z,40.30
2019-02-22T00:06:09.683Z,45.13
2019-02-22T00:08:37.533Z,42.63
2019-02-22T00:11:06.095Z,40.63
2019-02-22T00:13:34.304Z,39.40
2019-02-22T00:16:02.138Z,39.40
2019-02-22T00:18:30.687Z,37.40
2019-02-22T00:20:59.416Z,39.03
2019-02-22T00:23:27.630Z,40.00
2019-02-22T00:25:55.801Z,39.20
2019-02-22T00:28:24.002Z,36.90
2019-02-22T00:30:51.991Z,40.53
2019-02-22T00:33:20.458Z,40.33
2019-02-22T00:35:48.676Z,34.97
2019-02-22T00:38:28.432Z,37.47
2019-02-22T00:41:15.882Z,42.50
2019-02-22T00:43:44.456Z,39.77
2019-02-22T00:46:13.037Z,39.07
2019-02-22T00:48:41.323Z,38.13
2019-02-22T00:51:09.847Z,40.10
2019-02-22T00:53:37.803Z,34.97
2019-02-22T00:56:06.006Z,40.83
2019-02-22T00:58:34.159Z,35.13
2019-02-22T01:01:02.323Z,38.03
2019-02-22T01:03:30.613Z,39.90
2019-02-22T01:05:58.128Z,36.40
2019-02-22T01:08:26.702Z,35.00
2019-02-22T01:10:54.942Z,37.53
2019-02-22T01:13:23.536Z,38.00
2019-02-22T01:15:51.329Z,37.40
2019-02-22T01:18:19.250Z,34.90
2019-02-22T01:20:54.390Z,40.40
2019-02-22T01:23:24.127Z,55.03
2019-02-22T01:25:52.677Z,56.87
2019-02-22T01:28:21.322Z,62.37
2019-02-22T01:30:49.183Z,51.53
2019-02-22T01:33:17.771Z,49.80
2019-02-22T01:35:46.364Z,46.17
2019-02-22T01:38:14.639Z,45.27
2019-02-22T01:40:44.165Z,43.60
2019-02-22T01:43:19.541Z,51.03
2019-02-22T01:48:56.793Z,39.67
2019-02-22T01:51:25.003Z,46.30
2019-02-22T01:53:54.110Z,54.00
2019-02-22T01:56:29.627Z,43.20
2019-02-22T01:58:58.363Z,41.33
2019-02-22T02:01:25.923Z,37.47
2019-02-22T02:03:54.074Z,39.33
2019-02-22T02:06:21.940Z,40.87
2019-02-22T02:08:50.113Z,43.07
2019-02-22T02:11:18.694Z,43.00
2019-02-22T02:13:46.883Z,37.40
2019-02-22T02:16:15.175Z,42.40
2019-02-22T02:18:43.744Z,38.40
2019-02-22T02:21:12.132Z,36.70
2019-02-22T02:23:40.315Z,37.10
2019-02-22T02:26:08.181Z,37.50
2019-02-22T02:28:36.364Z,36.83
2019-02-22T02:31:04.537Z,36.47
2019-02-22T02:33:32.773Z,36.33
2019-02-22T02:36:01.009Z,39.30
2019-02-22T02:38:29.219Z,39.90
2019-02-22T02:41:08.119Z,35.17
2019-02-22T02:43:34.054Z,34.67
2019-02-22T02:46:02.226Z,36.57
2019-02-22T02:48:30.395Z,41.90
2019-02-22T02:50:58.673Z,35.80
2019-02-22T02:53:26.491Z,36.27
2019-02-22T02:55:55.039Z,38.27
2019-02-22T02:58:23.321Z,37.17
2019-02-22T03:00:51.467Z,43.10
2019-02-22T03:03:19.594Z,42.07
2019-02-22T03:06:07.401Z,43.73
2019-02-22T03:08:36.594Z,40.27
2019-02-22T03:11:04.918Z,38.37
2019-02-22T03:13:33.687Z,44.87
2019-02-22T03:16:01.908Z,41.00
2019-02-22T03:18:30.457Z,41.87
2019-02-22T03:20:58.683Z,39.43
2019-02-22T03:23:26.937Z,39.40
2019-02-22T03:25:55.087Z,40.83
2019-02-22T03:28:23.377Z,41.90
2019-02-22T03:30:51.912Z,41.63
2019-02-22T03:33:20.450Z,38.57
2019-02-22T03:35:48.723Z,42.73
2019-02-22T03:38:17.245Z,42.10
2019-02-22T03:40:45.097Z,41.80
2019-02-22T03:43:13.357Z,38.30
2019-02-22T03:45:41.747Z,40.37
2019-02-22T03:48:09.623Z,39.43
2019-02-22T03:50:37.797Z,43.03
2019-02-22T03:53:11.107Z,37.10
2019-02-22T03:55:39.404Z,40.77
2019-02-22T03:58:07.750Z,45.47
2019-02-22T04:00:47.473Z,43.57
2019-02-22T04:03:15.274Z,43.47
2019-02-22T04:05:43.886Z,39.63
2019-02-22T04:08:12.047Z,36.17
2019-02-22T04:10:40.337Z,44.97
2019-02-22T04:13:08.617Z,38.60
2019-02-22T04:15:36.796Z,35.93
2019-02-22T04:18:05.052Z,47.00
2019-02-22T04:20:33.771Z,39.00
2019-02-22T04:23:01.950Z,36.33
2019-02-22T04:25:30.467Z,41.40
2019-02-22T04:27:59.042Z,38.77
2019-02-22T04:30:27.536Z,40.03
2019-02-22T04:32:55.726Z,39.37
2019-02-22T04:35:24.231Z,37.53
2019-02-22T04:37:52.557Z,46.60
2019-02-22T04:40:21.169Z,40.37
2019-02-22T04:42:49.841Z,36.23
2019-02-22T04:45:18.071Z,34.53
2019-02-22T04:47:46.298Z,52.87
2019-02-22T04:50:14.859Z,40.00
2019-02-22T04:52:43.287Z,41.60
2019-02-22T04:55:11.975Z,38.50
2019-02-22T04:57:40.261Z,37.60
2019-02-22T05:00:08.748Z,39.27
2019-02-22T05:02:36.656Z,41.53
2019-02-22T05:05:05.719Z,39.67
2019-02-22T05:07:33.853Z,42.37
2019-02-22T05:10:02.263Z,40.03
2019-02-22T05:12:30.485Z,39.87
2019-02-22T05:15:11.463Z,40.83
2019-02-22T05:17:38.578Z,41.47
2019-02-22T05:20:25.911Z,45.50
2019-02-22T05:23:03.248Z,43.23
2019-02-22T05:25:31.218Z,45.83
2019-02-22T05:27:59.490Z,52.53
2019-02-22T05:30:27.370Z,47.27
2019-02-22T05:32:55.660Z,53.63
2019-02-22T05:35:23.175Z,42.83
2019-02-22T05:37:51.759Z,53.70
2019-02-22T05:40:19.877Z,53.80
2019-02-22T05:42:48.070Z,52.80
2019-02-22T05:45:15.987Z,47.67
2019-02-22T05:47:44.578Z,52.33
2019-02-22T05:50:13.283Z,48.97
2019-02-22T05:52:41.922Z,51.90
2019-02-22T05:55:10.102Z,49.33
2019-02-22T05:57:38.283Z,49.23
2019-02-22T06:00:07.235Z,53.63
2019-02-22T06:02:35.152Z,53.40
2019-02-22T06:05:03.694Z,47.43
2019-02-22T06:07:31.549Z,50.57
2019-02-22T06:10:00.100Z,60.13
2019-02-22T06:12:34.453Z,55.27
2019-02-22T06:15:04.799Z,66.33
2019-02-22T06:17:33.475Z,65.87
2019-02-22T06:20:02.077Z,62.57
2019-02-22T06:22:30.668Z,57.63
2019-02-22T06:24:59.235Z,58.93
2019-02-22T06:27:27.462Z,67.40
2019-02-22T06:29:55.069Z,93.00
2019-02-22T06:32:23.299Z,61.03
2019-02-22T06:34:51.482Z,69.00
2019-02-22T06:37:20.074Z,67.10
2019-02-22T06:39:48.561Z,62.73
2019-02-22T06:42:16.803Z,58.40
2019-02-22T06:44:45.495Z,48.17
2019-02-22T06:47:13.724Z,46.37
2019-02-22T06:49:44.437Z,46.80
2019-02-22T06:52:18.843Z,50.97
2019-02-22T06:54:47.244Z,50.83
2019-02-22T06:57:15.142Z,49.87
2019-02-22T06:59:43.484Z,52.93
2019-02-22T07:02:11.681Z,37.93
2019-02-22T07:04:39.895Z,40.37
2019-02-22T07:07:08.115Z,41.03
2019-02-22T07:09:36.716Z,39.20
2019-02-22T07:12:08.965Z,34.63
2019-02-22T07:14:37.514Z,36.30
2019-02-22T07:20:33.903Z,33.90
2019-02-22T07:23:02.139Z,33.93
2019-02-22T07:25:30.053Z,31.17
2019-02-22T07:27:58.268Z,32.03
2019-02-22T07:30:26.918Z,35.80
2019-02-22T07:32:55.619Z,32.60
2019-02-22T07:35:23.928Z,33.77
2019-02-22T07:37:51.829Z,35.73
2019-02-22T07:40:20.219Z,34.50
2019-02-22T07:42:48.107Z,33.17
2019-02-22T07:45:16.526Z,35.13
2019-02-22T07:47:44.800Z,34.40
2019-02-22T07:50:12.258Z,32.10
2019-02-22T07:52:40.959Z,42.00
2019-02-22T07:55:10.290Z,42.93
2019-02-22T07:57:40.112Z,33.80
2019-02-22T08:00:14.825Z,70.00
2019-02-22T08:02:43.353Z,68.27
2019-02-22T08:05:11.890Z,63.50
2019-02-22T08:07:40.163Z,74.10
2019-02-22T08:10:08.596Z,76.77
2019-02-22T08:12:36.833Z,68.93
2019-02-22T08:15:05.110Z,47.33
2019-02-22T08:17:33.711Z,43.17
2019-02-22T08:20:02.296Z,49.93
2019-02-22T08:22:30.805Z,54.23
2019-02-22T08:24:59.365Z,48.20
2019-02-22T08:27:27.859Z,38.07
2019-02-22T08:29:56.154Z,43.77
2019-02-22T08:32:24.414Z,38.37
2019-02-22T08:34:52.936Z,44.87
2019-02-22T08:37:21.089Z,48.00
2019-02-22T08:39:58.335Z,42.77
2019-02-22T08:42:29.720Z,49.80
2019-02-22T08:44:58.309Z,50.80
2019-02-22T08:47:26.841Z,45.83
2019-02-22T08:49:55.392Z,43.73
2019-02-22T08:52:23.671Z,39.03
2019-02-22T08:54:51.900Z,47.13
2019-02-22T08:57:20.051Z,67.30
2019-02-22T08:59:48.678Z,54.03
2019-02-22T09:02:17.319Z,58.67
2019-02-22T09:04:45.194Z,54.27
2019-02-22T09:07:13.772Z,57.77
2019-02-22T09:09:42.064Z,55.83
2019-02-22T09:12:09.561Z,54.03
2019-02-22T09:14:37.751Z,60.33
2019-02-22T09:17:05.601Z,54.57
2019-02-22T09:19:33.545Z,54.20
2019-02-22T09:22:02.121Z,56.63
2019-02-22T09:24:30.663Z,57.17
2019-02-22T09:26:58.800Z,59.60
2019-02-22T09:29:27.013Z,54.10
2019-02-22T09:31:55.148Z,53.93
2019-02-22T09:34:23.749Z,56.83
2019-02-22T09:36:52.001Z,59.97
2019-02-22T09:39:20.017Z,72.43
2019-02-22T09:41:47.444Z,66.27
2019-02-22T09:44:16.063Z,58.57
2019-02-22T09:46:44.313Z,67.67
2019-02-22T09:49:12.922Z,60.20
2019-02-22T09:51:41.469Z,63.10
2019-02-22T09:54:10.033Z,73.20
2019-02-22T09:56:38.542Z,60.53
2019-02-22T09:59:06.720Z,68.37
2019-02-22T10:01:34.971Z,61.87
2019-02-22T10:04:02.949Z,62.10
2019-02-22T10:06:31.469Z,63.07
2019-02-22T10:09:00.018Z,59.70
2019-02-22T10:11:28.286Z,62.30
2019-02-22T10:14:06.337Z,64.50
2019-02-22T10:16:36.389Z,68.03
2019-02-22T10:19:04.603Z,66.40
2019-02-22T10:21:32.930Z,72.23
2019-02-22T10:24:01.566Z,66.73
2019-02-22T10:26:29.443Z,58.80
2019-02-22T10:28:57.630Z,60.13
2019-02-22T10:31:25.890Z,63.57
2019-02-22T10:33:54.013Z,59.43
2019-02-22T10:36:22.676Z,57.17
2019-02-22T10:38:51.015Z,75.87
2019-02-22T10:41:19.437Z,63.77
2019-02-22T10:43:47.430Z,72.40
2019-02-22T10:46:15.910Z,75.07
2019-02-22T10:48:44.534Z,82.50
2019-02-22T10:51:12.864Z,64.60
2019-02-22T10:53:41.454Z,63.63
2019-02-22T10:56:09.645Z,68.10
2019-02-22T10:58:37.901Z,63.43
2019-02-22T11:01:06.109Z,50.37
2019-02-22T11:03:34.059Z,74.57
2019-02-22T11:06:02.699Z,52.13
2019-02-22T11:08:31.046Z,38.07
2019-02-22T11:10:58.464Z,35.53
2019-02-22T11:13:26.780Z,37.43
2019-02-22T11:15:55.033Z,36.03
2019-02-22T11:18:22.945Z,43.33
2019-02-22T11:20:51.028Z,49.93
2019-02-22T11:23:19.315Z,58.57
2019-02-22T11:25:47.489Z,43.60
2019-02-22T11:28:15.698Z,44.13
2019-02-22T11:30:44.259Z,40.23
2019-02-22T11:33:12.875Z,38.77
2019-02-22T11:35:41.529Z,37.40
2019-02-22T11:38:09.725Z,37.33
2019-02-22T11:40:37.697Z,36.87
2019-02-22T11:43:06.174Z,40.27
2019-02-22T11:45:34.712Z,38.67
2019-02-22T11:48:09.208Z,39.27
2019-02-22T11:50:39.289Z,40.40
2019-02-22T11:53:07.527Z,38.93
2019-02-22T11:58:37.628Z,40.80
2019-02-22T12:04:08.367Z,40.40
2019-02-22T12:09:55.398Z,36.83
2019-02-22T12:15:25.610Z,37.87
2019-02-22T12:18:36.364Z,36.17
2019-02-22T12:21:10.630Z,36.97
2019-02-22T12:23:38.965Z,38.87
2019-02-22T12:26:07.531Z,39.80
2019-02-22T12:28:35.476Z,38.17
2019-02-22T12:31:03.821Z,40.93
2019-02-22T12:33:31.336Z,49.60
2019-02-22T12:35:59.902Z,42.13
2019-02-22T12:38:28.353Z,41.90
2019-02-22T12:41:08.099Z,40.90
2019-02-22T12:46:56.817Z,43.73
2019-02-22T12:49:44.579Z,52.20
2019-02-22T12:52:12.874Z,60.30
2019-02-22T12:54:41.441Z,47.70
2019-02-22T12:57:10.011Z,44.50
2019-02-22T13:03:29.596Z,48.13
2019-02-22T13:05:58.186Z,40.40
2019-02-22T13:08:26.726Z,49.60
2019-02-22T13:10:55.479Z,50.17
2019-02-22T13:14:04.159Z,44.77
2019-02-22T13:16:32.745Z,44.90
2019-02-22T13:19:00.730Z,44.25
2019-02-22T13:21:29.435Z,46.57
2019-02-22T13:23:57.656Z,48.07
2019-02-22T13:29:34.862Z,112.93
2019-02-22T13:32:03.069Z,69.50
2019-02-22T13:40:53.169Z,44.83
2019-02-22T13:43:21.779Z,45.07
2019-02-22T13:48:51.694Z,58.73
2019-02-22T13:51:19.969Z,52.83
2019-02-22T13:53:48.607Z,59.67
2019-02-22T13:56:15.813Z,45.13
2019-02-22T13:58:44.072Z,40.77
2019-02-22T14:01:12.269Z,37.33
2019-02-22T14:03:52.050Z,42.10
2019-02-22T14:09:22.421Z,39.07
2019-02-22T14:15:37.927Z,38.53
2019-02-22T14:18:00.781Z,34.50
2019-02-22T14:23:30.923Z,28.40
2019-02-22T14:26:10.682Z,30.00
2019-02-22T14:31:59.713Z,28.03
2019-02-22T14:38:10.402Z,24.60
2019-02-22T14:40:50.610Z,28.10
2019-02-22T14:46:27.712Z,27.93
2019-02-22T14:49:36.425Z,24.97
2019-02-22T14:52:05.235Z,27.63
2019-02-22T14:54:33.912Z,25.80
2019-02-22T14:57:02.180Z,30.87
2019-02-22T14:59:30.671Z,28.83
2019-02-22T15:01:58.301Z,30.93
2019-02-22T15:04:26.505Z,30.50
2019-02-22T15:06:54.461Z,25.57
2019-02-22T15:09:23.090Z,23.63
2019-02-22T15:11:51.775Z,23.87
2019-02-22T15:14:20.415Z,25.00
2019-02-22T15:17:07.841Z,25.47
2019-02-22T15:19:36.061Z,29.13
2019-02-22T15:22:04.698Z,26.50
2019-02-22T15:24:33.214Z,26.17
2019-02-22T15:27:12.773Z,27.83
2019-02-22T15:29:40.950Z,27.17
2019-02-22T15:32:09.235Z,32.27
2019-02-22T15:34:37.589Z,36.60
2019-02-22T15:37:05.086Z,25.90
2019-02-22T15:39:33.477Z,23.97
2019-02-22T15:42:02.169Z,26.13
2019-02-22T15:44:29.377Z,21.43
2019-02-22T15:46:58.074Z,21.20
2019-02-22T15:49:26.138Z,22.57
2019-02-22T15:51:54.802Z,22.77
2019-02-22T15:54:23.107Z,23.83
2019-02-22T15:56:50.982Z,22.00
2019-02-22T15:59:20.940Z,23.63
2019-02-22T16:01:56.129Z,21.27
2019-02-22T16:04:54.955Z,19.90
2019-02-22T16:07:23.581Z,21.17
2019-02-22T16:10:32.181Z,20.13
2019-02-22T16:13:00.900Z,20.53
2019-02-22T16:18:31.305Z,23.07
2019-02-22T16:21:39.630Z,18.00
2019-02-22T16:24:06.876Z,28.60
2019-02-22T16:26:52.041Z,28.73
2019-02-22T16:29:20.399Z,29.20
2019-02-22T16:34:48.481Z,35.33
2019-02-22T16:37:17.197Z,32.03
2019-02-22T16:39:45.761Z,34.23
2019-02-22T16:42:14.016Z,28.93
2019-02-22T16:44:42.281Z,26.13
2019-02-22T16:47:50.910Z,24.13
2019-02-22T16:50:50.446Z,28.70
2019-02-22T16:53:18.306Z,25.97
2019-02-22T16:55:46.630Z,25.57
2019-02-22T16:58:14.705Z,19.50
2019-02-22T17:00:42.623Z,21.77
2019-02-22T17:03:11.197Z,21.23
2019-02-22T17:05:38.776Z,23.70
2019-02-22T17:08:06.662Z,25.17
2019-02-22T17:10:34.929Z,21.07
2019-02-22T17:13:03.137Z,31.13
2019-02-22T17:15:31.385Z,29.37
2019-02-22T17:20:39.932Z,31.37
2019-02-22T17:23:08.618Z,30.47
2019-02-22T17:25:36.875Z,28.30
2019-02-22T17:28:04.730Z,37.03
2019-02-22T17:30:33.007Z,34.93
2019-02-22T17:33:01.246Z,25.77
2019-02-22T17:35:29.429Z,21.60
2019-02-22T17:37:58.002Z,20.43
2019-02-22T17:40:26.181Z,23.90
2019-02-22T17:42:54.464Z,27.30
2019-02-22T17:45:23.162Z,20.77
2019-02-22T17:47:51.546Z,20.73
2019-02-22T17:50:19.721Z,24.23
2019-02-22T17:52:48.104Z,25.43
2019-02-22T17:55:24.415Z,19.90
2019-02-22T17:57:53.068Z,22.23
2019-02-22T18:00:22.255Z,22.30
2019-02-22T18:02:50.952Z,26.97
2019-02-22T18:05:19.245Z,40.07
2019-02-22T18:07:47.826Z,57.10
2019-02-22T18:10:16.065Z,46.13
2019-02-22T18:12:44.808Z,27.00
2019-02-22T18:15:12.875Z,21.23
2019-02-22T18:17:42.060Z,23.57
2019-02-22T18:20:10.586Z,26.10
2019-02-22T18:23:19.185Z,21.53
2019-02-22T18:25:59.712Z,25.07
2019-02-22T18:31:48.392Z,33.97
2019-02-22T18:34:16.981Z,32.97
2019-02-22T18:36:45.610Z,37.70
2019-02-22T18:39:13.507Z,39.17
2019-02-22T18:41:42.236Z,44.43
2019-02-22T18:44:10.211Z,44.70
2019-02-22T18:46:37.764Z,42.80
2019-02-22T18:49:05.983Z,40.20
2019-02-22T18:51:33.515Z,42.60
2019-02-22T18:54:02.103Z,38.37
2019-02-22T18:56:30.797Z,41.90
2019-02-22T18:58:58.686Z,45.20
2019-02-22T19:01:26.647Z,52.60
2019-02-22T19:03:55.317Z,45.43
2019-02-22T19:06:22.898Z,47.87
2019-02-22T19:08:51.778Z,53.20
2019-02-22T19:11:20.332Z,54.23
2019-02-22T19:14:08.222Z,64.20
2019-02-22T19:16:36.561Z,59.70
2019-02-22T19:22:14.195Z,43.53
2019-02-22T19:24:42.806Z,42.00
2019-02-22T19:27:10.839Z,46.63
2019-02-22T19:29:39.451Z,56.10
2019-02-22T19:32:08.009Z,53.33
2019-02-22T19:34:36.840Z,48.67
2019-02-22T19:37:04.803Z,47.70
2019-02-22T19:39:33.091Z,52.83
2019-02-22T19:42:01.794Z,44.00
2019-02-22T19:44:30.461Z,39.53
2019-02-22T19:46:59.217Z,35.63
2019-02-22T19:49:27.978Z,48.13
2019-02-22T19:51:56.241Z,46.90
2019-02-22T19:54:24.517Z,48.60
2019-02-22T19:56:52.838Z,39.17
2019-02-22T19:59:21.726Z,44.53
2019-02-22T20:01:49.924Z,43.60
2019-02-22T20:04:17.858Z,41.30
2019-02-22T20:06:46.326Z,37.40
2019-02-22T20:09:14.612Z,37.97
2019-02-22T20:11:43.132Z,38.37
2019-02-22T20:14:11.757Z,43.33
2019-02-22T20:16:40.097Z,42.93
2019-02-22T20:19:08.752Z,41.23
2019-02-22T20:21:36.685Z,41.97
2019-02-22T20:24:04.618Z,39.67
2019-02-22T20:26:33.229Z,44.33
2019-02-22T20:29:01.502Z,36.20
2019-02-22T20:31:29.779Z,39.53
2019-02-22T20:33:58.165Z,38.03
2019-02-22T20:36:28.678Z,37.77
2019-02-22T20:39:15.029Z,62.70
2019-02-22T20:45:04.338Z,73.00
2019-02-22T20:47:32.712Z,94.77
2019-02-22T20:50:01.387Z,131.67
2019-02-22T20:53:09.775Z,103.10
2019-02-22T20:55:49.842Z,72.77
2019-02-22T21:01:16.632Z,55.87
2019-02-22T21:03:45.231Z,57.90
2019-02-22T21:06:14.031Z,48.67
2019-02-22T21:08:42.636Z,43.83
2019-02-22T21:11:10.502Z,43.90
2019-02-22T21:13:38.753Z,44.20
2019-02-22T21:16:38.875Z,45.30
2019-02-22T21:25:40.671Z,43.07
2019-02-22T21:31:07.782Z,41.27
2019-02-22T21:36:56.240Z,39.37
2019-02-22T21:39:43.781Z,34.80
2019-02-22T21:42:19.822Z,38.00
2019-02-22T21:47:54.822Z,33.80
2019-02-22T21:50:26.284Z,30.57
2019-02-22T21:55:56.131Z,27.77
2019-02-22T21:59:04.725Z,35.53
2019-02-22T22:01:32.642Z,38.03
2019-02-22T22:04:01.249Z,33.40
2019-02-22T22:06:29.579Z,30.67
2019-02-22T22:08:58.066Z,31.33
2019-02-22T22:11:25.962Z,32.23
2019-02-22T22:13:54.628Z,31.27
2019-02-22T22:16:23.253Z,28.63
2019-02-22T22:18:52.019Z,31.50
2019-02-22T22:21:20.212Z,33.97
2019-02-22T22:23:48.495Z,37.37
2019-02-22T22:26:16.655Z,36.90
2019-02-22T22:28:44.904Z,42.00
2019-02-22T22:31:13.122Z,38.60
2019-02-22T22:33:41.399Z,42.53
2019-02-22T22:36:09.683Z,38.90
2019-02-22T22:38:37.858Z,44.97
2019-02-22T22:41:06.157Z,42.30
2019-02-22T22:43:34.409Z,39.13
2019-02-22T22:46:03.119Z,39.20
2019-02-22T22:48:31.411Z,39.60
2019-02-22T22:51:00.198Z,37.87
2019-02-22T22:53:28.744Z,41.70
2019-02-22T22:55:56.673Z,36.57
2019-02-22T22:58:24.681Z,35.30
2019-02-22T23:01:34.709Z,32.30
2019-02-22T23:04:03.412Z,33.23
2019-02-22T23:06:51.093Z,32.33
2019-02-22T23:18:22.587Z,29.17
2019-02-22T23:21:09.829Z,28.47
2019-02-22T23:23:37.330Z,28.97
2019-02-22T23:26:05.553Z,29.20
2019-02-22T23:29:13.813Z,28.43
2019-02-22T23:31:42.589Z,30.13
2019-02-22T23:34:10.583Z,29.23
2019-02-22T23:40:01.211Z,27.80
2019-02-22T23:42:29.754Z,25.37
2019-02-22T23:50:58.363Z,22.87
2019-02-22T23:54:06.988Z,27.00
2019-02-22T23:56:35.678Z,26.50
2019-02-22T23:59:04.134Z,24.93
